EBCI - Charleroi/Gosselies, Belgium
Distance de la station: NE 18km
Mise à jour: 16/09/2021 11:50
principalement nuageux
principalement nuageux
 Wind from ONO
Vent: ONO 9 km/h
Température: 17°C
Point de rosée: 13°C
Humidité: 77%
Baromètre: 1019 hPa
Ciel: principalement nuageux
Visibilité: 8 km
Détails du ciel: partiellement nuageux 366 m
principalement nuageux 1372 m
2021/09/16 09:50 EBCI 160950Z 30005KT 250V340 8000 SCT012 BKN045 17/13 Q1019 TEMPO BKN012
EBFS - Florennes, Belgium
Distance de la station: ESE 31km
Mise à jour: 16/09/2021 12:03
principalement nuageux
principalement nuageux
 Wind from ONO
Vent: ONO 13 km/h
Température: 16°C
Point de rosée: 12°C
Humidité: 77%
Baromètre: 1019 hPa
Ciel: principalement nuageux
Visibilité: 10 km
Détails du ciel: partiellement nuageux 366 m
principalement nuageux 1067 m
2021/09/16 10:03 EBFS 161003Z 30007KT 9999 SCT012 BKN035 16/12 Q1019 GRN GRN BECMG WHT
EBCV - Chievres, Belgium
Distance de la station: NO 40km
Mise à jour: 16/09/2021 11:55
quelques nuages
quelques nuages
 Wind from ONO
Vent: ONO 9 km/h
Température: 18°C
Point de rosée: 15°C
Humidité: 83%
Baromètre: 1019 hPa
Ciel: quelques nuages
Visibilité: 10 km
Détails du ciel: quelques nuages 274 m
2021/09/16 09:55 EBCV 160955Z AUTO 30005KT 9999 FEW009/// 18/15 Q1019 BLU
 
EBBE - Beauvechain, Belgium
Distance de la station: NE 57km
Mise à jour: 16/09/2021 11:55
partiellement nuageux
partiellement nuageux
 Wind from ONO
Vent: ONO 13 km/h
Température: 18°C
Point de rosée: 12°C
Humidité: 68%
Baromètre: 1018 hPa
Ciel: partiellement nuageux
Visibilité: 10 km
Détails du ciel: quelques nuages 488 m
partiellement nuageux 7620 m
2021/09/16 09:55 EBBE 160955Z 29007KT 9999 FEW016 SCT250 18/12 Q1018 BLU BLU
EBBR - Brussels National, Belgium
Distance de la station: NNE 63km
Mise à jour: 16/09/2021 11:50
quelques nuages
quelques nuages
 Wind from NO
Vent: NO 13 km/h
Température: 18°C
Point de rosée: 11°C
Humidité: 64%
Baromètre: 1018 hPa
Ciel: quelques nuages
Visibilité: 10 km
Détails du ciel: quelques nuages 853 m
2021/09/16 09:50 EBBR 160950Z 31007KT 280V340 9999 FEW028 18/11 Q1018 NOSIG
LFQI - Cambrai/Epinoy, France
Distance de la station: O 82km
Mise à jour: 29/06/2012 12:30
NOT Current

 Wind from SO
Vent: SO 17 km/h
Température: 18°C
Point de rosée: 14°C
Humidité: 78%
Baromètre: 1009 hPa
2012/06/29 10:30 LFQI 291030Z AUTO 22009KT //// // ///////// 18/14 Q1009
 
LFQQ - Lille/Lesquin, France
Distance de la station: ONO 86km
Mise à jour: 16/09/2021 12:00
partiellement nuageux
partiellement nuageux
 Wind from O
Vent: O 7 km/h
Température: 19°C
Point de rosée: 13°C
Humidité: 68%
Baromètre: 1019 hPa
Ciel: partiellement nuageux
Visibilité: 10 km
Détails du ciel: partiellement nuageux 671 m
2021/09/16 10:00 LFQQ 161000Z AUTO 28004KT 230V320 9999 SCT022 19/13 Q1019 NOSIG
EBLG - Bierset/Liege, Belgium
Distance de la station: ENE 89km
Mise à jour: 16/09/2021 11:50
principalement nuageux
principalement nuageux
 Wind from O
Vent: O 15 km/h
Température: 16°C
Point de rosée: 13°C
Humidité: 83%
Baromètre: 1018 hPa
Ciel: principalement nuageux
Visibilité: 10 km
Détails du ciel: partiellement nuageux 427 m
principalement nuageux 1280 m
2021/09/16 09:50 EBLG 160950Z 28008KT 250V320 9999 SCT014 BKN042 16/13 Q1018 NOSIG
EBDT - Schaffen, Belgium
Distance de la station: NE 93km
Mise à jour: 16/09/2021 12:03
partiellement nuageux
partiellement nuageux
 Wind from ONO
Vent: ONO 13 km/h
Température: 19°C
Point de rosée: 12°C
Humidité: 64%
Baromètre: 1018 hPa
Ciel: partiellement nuageux
Visibilité: 10 km
Détails du ciel: quelques nuages 671 m
partiellement nuageux 732 m
2021/09/16 10:03 EBDT 161003Z AUTO 30007KT 9999 FEW022/// SCT024/// 19/12 Q1018 WHT
 
EBAW - Antwerp/Deurne, Belgium
Distance de la station: N 96km
Mise à jour: 16/09/2021 11:50
quelques nuages
quelques nuages
 Wind from O
Vent: O 15 km/h
Température: 19°C
Point de rosée: 12°C
Humidité: 64%
Baromètre: 1018 hPa
Ciel: quelques nuages
Visibilité: 10 km
Détails du ciel: quelques nuages 914 m
2021/09/16 09:50 EBAW 160950Z 28008KT 250V310 9999 FEW030 19/12 Q1018 NOSIG
LFAQ - Bray, France
Distance de la station: OSO 119km
Mise à jour: 16/09/2021 12:00
principalement nuageux
principalement nuageux
 Wind from O
Vent: O 6 km/h
Température: 17°C
Point de rosée: 14°C
Humidité: 83%
Baromètre: 1019 hPa
Ciel: principalement nuageux
Visibilité: 10 km
Détails du ciel: principalement nuageux 305 m
2021/09/16 10:00 LFAQ 161000Z AUTO 28003KT 230V340 9999 BKN010 17/14 Q1019 BECMG SCT025
LFSR - Reims/Champagne, France
Distance de la station: S 120km
Mise à jour: 16/04/2012 09:00
NOT Current
partiellement nuageux
partiellement nuageux
 Wind from N
Vent: N 17 km/h
Température: 4°C
Température ressentie: 0°C
Point de rosée: 0°C
Humidité: 75%
Baromètre: 1022 hPa
Ciel: partiellement nuageux
Visibilité: 10 km
2012/04/16 07:00 LFSR 160700Z AUTO 01009KT 340V070 9999 NSC 04/00 Q1022
 
EHWO - Woensdrecht, Netherlands
Distance de la station: N 122km
Mise à jour: 16/09/2021 11:55
couvert
couvert
 Wind from O
Vent: O 17 km/h
Température: 19°C
Point de rosée: 13°C
Humidité: 68%
Baromètre: 1017 hPa
Ciel: couvert
Visibilité: 10 km
Détails du ciel: couvert 5182 m
2021/09/16 09:55 EHWO 160955Z AUTO 28009KT 240V350 9999 OVC170 19/13 Q1017 BLU
EHBK - Zuid-Limburg, Netherlands
Distance de la station: ENE 123km
Mise à jour: 16/09/2021 11:55
principalement nuageux
principalement nuageux
 Wind from SO
Vent: SO 11 km/h
Température: 18°C
Point de rosée: 15°C
Humidité: 83%
Baromètre: 1018 hPa
Ciel: principalement nuageux
Visibilité: 10 km
Détails du ciel: partiellement nuageux 366 m
principalement nuageux 488 m
principalement nuageux 701 m
2021/09/16 09:55 EHBK 160955Z AUTO 23006KT 160V270 9999 SCT012 BKN016 BKN023 18/15 Q1018 BECMG BKN025
EBBL - Kleine-Brogel, Belgium
Distance de la station: NE 124km
Mise à jour: 16/09/2021 11:55
partiellement nuageux
partiellement nuageux
 Wind from ONO
Vent: ONO 11 km/h
Température: 18°C
Point de rosée: 13°C
Humidité: 73%
Baromètre: 1018 hPa
Ciel: partiellement nuageux
Visibilité: 10 km
Détails du ciel: quelques nuages 610 m
partiellement nuageux 914 m
2021/09/16 09:55 EBBL 160955Z 29006KT 9999 FEW020 SCT030 18/13 Q1018 BLU BLU
 
EBLB - Elsenborn, Belgium
Distance de la station: E 135km
Mise à jour: 16/09/2021 11:55
couvert
couvert
 Wind from O
Vent: O 9 km/h
Température: 12°C
Point de rosée: 11°C
Humidité: 94%
Baromètre: 1018 hPa
Ciel: couvert
Visibilité: 8 km
Détails du ciel: couvert 152 m
2021/09/16 09:55 EBLB 160955Z AUTO 28005KT 8000 OVC005/// 12/11 Q1018 YLO
EBOS - Oostende Airport, Belgium
Distance de la station: NO 136km
Mise à jour: 16/09/2021 11:50
partiellement nuageux
partiellement nuageux
 Wind from O
Vent: O 17 km/h
Température: 19°C
Point de rosée: 15°C
Humidité: 78%
Baromètre: 1019 hPa
Ciel: partiellement nuageux
Visibilité: 10 km
Détails du ciel: partiellement nuageux 610 m
2021/09/16 09:50 EBOS 160950Z 28009KT 9999 SCT020 19/15 Q1019 NOSIG
EBFN - Koksijde, Belgium
Distance de la station: NO 140km
Mise à jour: 16/09/2021 11:55
quelques nuages
quelques nuages
 Wind from ONO
Vent: ONO 13 km/h
Température: 19°C
Point de rosée: 14°C
Humidité: 73%
Baromètre: 1018 hPa
Ciel: quelques nuages
Visibilité: 10 km
Détails du ciel: quelques nuages 610 m
2021/09/16 09:55 EBFN 160955Z 30007KT 9999 FEW020 19/14 Q1018 BLU BLU
 
ETNG - Geilenkirchen, Germany
Distance de la station: ENE 142km
Mise à jour: 16/09/2021 11:50
partiellement nuageux
partiellement nuageux
 Wind from OSO
Vent: OSO 15 km/h
Température: 18°C
Point de rosée: 14°C
Humidité: 78%
Baromètre: 1018 hPa
Ciel: partiellement nuageux
Visibilité: 10 km
Détails du ciel: quelques nuages 457 m
partiellement nuageux 762 m
2021/09/16 09:50 ETNG 160950Z 25008KT 9999 FEW015 SCT025 18/14 Q1018 NOSIG
EHGR - Gilze-Rijen, Netherlands
Distance de la station: NNE 143km
Mise à jour: 16/09/2021 11:55
clair
clair
 Wind from NO
Vent: NO 17 km/h
Température: 19°C
Point de rosée: 12°C
Humidité: 64%
Baromètre: 1017 hPa
Ciel: clair
Visibilité: 10 km
2021/09/16 09:55 EHGR 160955Z AUTO 31009KT 250V350 9999 NCD 19/12 Q1017 BLU NOSIG
EHEH - Eindhoven, Netherlands
Distance de la station: NNE 147km
Mise à jour: 16/09/2021 12:15
principalement nuageux
principalement nuageux
 Wind from ONO
Vent: ONO 11 km/h
Température: 19°C
Point de rosée: 13°C
Humidité: 68%
Baromètre: 1017 hPa
Ciel: principalement nuageux
Visibilité: 10 km
Détails du ciel: principalement nuageux 762 m
principalement nuageux 8839 m
2021/09/16 10:15 EHEH 161015Z AUTO 29006KT 230V320 9999 BKN025 BKN290 19/13 Q1017 BLU NOSIG
 
ELLX - Luxembourg, Luxembourg
Distance de la station: ESE 162km
Mise à jour: 16/09/2021 11:50
partiellement nuageux
partiellement nuageux
 Wind from N
Vent: N 15 km/h
Température: 17°C
Point de rosée: 10°C
Humidité: 64%
Baromètre: 1018 hPa
Ciel: partiellement nuageux
Visibilité: 10 km
Détails du ciel: quelques nuages 701 m
partiellement nuageux 914 m
2021/09/16 09:50 ELLX 160950Z 01008KT 280V070 9999 FEW023 SCT030 17/10 Q1018 NOSIG
EHVK - Volkel, Netherlands
Distance de la station: NE 174km
Mise à jour: 16/09/2021 12:05
couvert
couvert
 Wind from ONO
Vent: ONO 13 km/h
Température: 18°C
Point de rosée: 12°C
Humidité: 68%
Baromètre: 1017 hPa
Ciel: couvert
Visibilité: 10 km
Détails du ciel: couvert 9449 m
2021/09/16 10:05 EHVK 161005Z AUTO 29007KT 240V320 9999 OVC310 18/12 Q1017 BLU NOSIG
LFOK - Chalons/Vatry, France
Distance de la station: S 174km
Mise à jour: 16/09/2021 12:00
quelques nuages
quelques nuages
 Wind from NNE
Vent: NNE 17 km/h
Température: 17°C
Point de rosée: 12°C
Humidité: 73%
Baromètre: 1019 hPa
Ciel: quelques nuages
Visibilité: 10 km
Détails du ciel: quelques nuages 518 m
2021/09/16 10:00 LFOK 161000Z AUTO 02009KT 360V060 9999 FEW017 17/12 Q1019 NOSIG
Script from Saratoga-Weather.org